createdAt,value
2023-05-12T04:36:45.843Z,9.73
2023-05-12T04:39:49.292Z,9.73
2023-05-12T04:42:52.101Z,9.74
2023-05-12T04:45:55.557Z,9.67
2023-05-12T04:48:58.299Z,9.75
2023-05-12T04:52:01.381Z,9.76
2023-05-12T04:55:05.469Z,9.76
2023-05-12T04:58:08.432Z,9.78
2023-05-12T05:01:12.551Z,9.76
2023-05-12T05:04:15.906Z,9.66
2023-05-12T05:07:18.792Z,9.74
2023-05-12T05:10:22.224Z,9.80
2023-05-12T05:13:24.928Z,9.78
2023-05-12T05:16:28.412Z,9.77
2023-05-12T05:19:49.974Z,9.79
2023-05-12T05:23:21.061Z,9.73
2023-05-12T05:26:25.131Z,9.74
2023-05-12T05:29:29.408Z,9.73
2023-05-12T05:32:32.622Z,9.70
2023-05-12T05:35:38.136Z,9.73
2023-05-12T05:38:40.872Z,9.74
2023-05-12T05:41:44.634Z,9.66
2023-05-12T05:44:47.291Z,9.75
2023-05-12T05:47:53.212Z,9.76
2023-05-12T05:50:56.690Z,9.74
2023-05-12T05:54:04.151Z,9.78
2023-05-12T05:57:07.084Z,9.77
2023-05-12T06:00:12.521Z,9.78
2023-05-12T06:03:16.612Z,9.76
2023-05-12T06:06:20.150Z,9.67
2023-05-12T06:09:23.477Z,9.72
2023-05-12T06:12:26.558Z,9.78
2023-05-12T06:15:29.239Z,9.77
2023-05-12T06:18:38.222Z,9.76
2023-05-12T06:21:41.026Z,9.78
2023-05-12T06:24:44.062Z,9.72
2023-05-12T06:27:46.702Z,9.78
2023-05-12T06:30:49.681Z,9.86
2023-05-12T07:21:52.263Z,9.81
2023-05-12T07:24:55.274Z,9.73
2023-05-12T07:27:58.403Z,9.74
2023-05-12T07:31:01.837Z,9.77
2023-05-12T07:34:04.559Z,9.75
2023-05-12T07:37:07.572Z,9.86
2023-05-12T07:40:10.544Z,9.88
2023-05-12T07:43:13.632Z,9.80
2023-05-12T07:46:16.366Z,9.87
2023-05-12T07:49:19.418Z,9.76
2023-05-12T07:52:22.069Z,9.90
2023-05-12T07:55:25.829Z,9.93
2023-05-12T07:58:28.550Z,9.87
2023-05-12T08:01:31.722Z,9.90
2023-05-12T08:04:34.830Z,9.95
2023-05-12T08:07:38.363Z,9.84
2023-05-12T08:10:41.441Z,9.99
2023-05-12T08:13:44.106Z,10.14
2023-05-12T08:16:47.386Z,10.27
2023-05-12T08:19:50.087Z,10.32
2023-05-12T08:22:53.167Z,10.29
2023-05-12T08:25:55.822Z,10.39
2023-05-12T08:28:58.765Z,10.50
2023-05-12T08:32:02.391Z,10.55
2023-05-12T08:35:06.116Z,10.49
2023-05-12T08:38:08.870Z,10.42
2023-05-12T08:41:19.300Z,10.26
2023-05-12T08:44:23.398Z,10.30
2023-05-12T08:47:27.437Z,10.28
2023-05-12T08:50:31.200Z,10.43
2023-05-12T08:53:37.688Z,10.30
2023-05-12T08:59:47.400Z,10.18
2023-05-12T09:02:54.509Z,10.15
2023-05-12T09:05:59.210Z,10.06
2023-05-12T09:09:03.190Z,10.11
2023-05-12T09:12:12.118Z,10.14
2023-05-12T09:15:26.045Z,10.28
2023-05-12T09:18:47.841Z,10.37
2023-05-12T10:50:38.470Z,10.35
2023-05-12T10:53:50.226Z,10.29
2023-05-12T10:57:15.003Z,10.26
2023-05-12T11:00:25.874Z,10.38
2023-05-12T11:03:32.135Z,10.35
2023-05-12T11:06:40.974Z,10.35
2023-05-12T11:13:21.753Z,10.49
2023-05-12T11:16:25.869Z,10.52
2023-05-12T11:19:33.931Z,10.54
2023-05-12T11:22:41.100Z,10.46
2023-05-12T11:25:48.633Z,10.34
2023-05-12T11:29:11.363Z,10.21
2023-05-12T11:32:32.753Z,10.22
2023-05-12T11:35:37.812Z,10.29
2023-05-12T11:38:50.413Z,10.34
2023-05-12T11:42:02.057Z,10.47
2023-05-12T11:45:39.314Z,10.63
2023-05-12T11:48:42.254Z,10.63
2023-05-12T11:52:14.273Z,10.69
2023-05-12T11:55:23.746Z,10.68
2023-05-12T11:58:58.321Z,10.59
2023-05-12T12:02:21.482Z,10.41
2023-05-12T12:05:24.567Z,10.34
2023-05-12T12:09:08.646Z,10.38
2023-05-12T12:12:35.330Z,10.37
2023-05-12T12:15:38.285Z,10.33
2023-05-12T12:19:21.214Z,10.29
2023-05-12T12:22:29.788Z,10.19
2023-05-12T12:25:33.226Z,10.12
2023-05-12T12:29:15.838Z,10.09
2023-05-12T12:32:44.390Z,9.99
2023-05-12T12:36:07.260Z,10.15
2023-05-12T12:39:12.656Z,10.03
2023-05-12T12:42:42.417Z,10.12
2023-05-12T12:46:26.249Z,10.08
2023-05-12T13:59:51.881Z,9.61
2023-05-12T14:02:54.907Z,9.53
2023-05-12T14:05:57.861Z,9.49
2023-05-12T14:09:00.569Z,9.40
2023-05-12T14:12:04.448Z,9.50
2023-05-12T14:15:22.016Z,9.46
2023-05-12T14:18:29.657Z,9.47
2023-05-12T14:21:32.478Z,9.45
2023-05-12T14:24:35.457Z,9.38
2023-05-12T14:27:38.142Z,9.44
2023-05-12T14:30:41.866Z,9.43
2023-05-12T14:33:45.331Z,9.38
2023-05-12T14:36:48.737Z,9.30
2023-05-12T14:39:51.410Z,9.15
2023-05-12T14:42:55.275Z,9.20
2023-05-12T14:46:18.459Z,9.16
2023-05-12T14:49:22.458Z,9.11
2023-05-12T14:52:25.121Z,9.07
2023-05-12T14:55:51.437Z,9.10
2023-05-12T14:58:54.308Z,9.08
2023-05-12T15:02:17.396Z,9.02
2023-05-12T15:05:21.825Z,9.05
2023-05-12T15:08:27.669Z,9.15
2023-05-12T15:11:30.580Z,9.18
2023-05-12T15:14:33.906Z,9.10
2023-05-12T15:17:36.555Z,9.13
2023-05-12T15:20:39.959Z,9.18
2023-05-12T15:23:44.118Z,9.22
2023-05-12T15:26:48.209Z,9.19
2023-05-12T15:29:50.921Z,9.21
2023-05-12T15:32:58.702Z,9.17
2023-05-12T15:36:01.453Z,9.20
2023-05-12T15:39:05.223Z,9.18
2023-05-12T15:42:38.409Z,9.16
2023-05-12T15:53:38.989Z,9.26
2023-05-12T15:56:43.452Z,9.25
2023-05-12T15:59:46.388Z,9.22
2023-05-12T16:03:09.439Z,9.29
2023-05-12T16:06:14.473Z,9.27
2023-05-12T16:09:17.212Z,9.26
2023-05-12T16:12:39.054Z,9.29
2023-05-12T16:15:41.690Z,9.30
2023-05-12T16:18:47.526Z,9.31
2023-05-12T16:21:50.677Z,9.33
2023-05-12T16:24:56.554Z,9.34
2023-05-12T16:27:59.522Z,9.39
2023-05-12T16:31:11.220Z,9.42
2023-05-12T16:34:15.533Z,9.44
2023-05-12T16:37:18.934Z,9.45
2023-05-12T16:40:33.775Z,9.48
2023-05-12T16:43:38.032Z,9.45
2023-05-12T16:46:41.792Z,9.56
2023-05-12T16:49:44.827Z,9.55
2023-05-12T16:52:51.261Z,9.53
2023-05-12T16:55:54.295Z,9.56
2023-05-12T16:58:56.968Z,9.58
2023-05-12T17:02:00.253Z,9.62
2023-05-12T17:05:03.533Z,9.61
2023-05-12T17:08:06.491Z,9.65
2023-05-12T17:11:09.698Z,9.64
2023-05-12T17:14:12.605Z,9.63
2023-05-12T17:17:15.276Z,9.71
2023-05-12T17:20:18.840Z,9.71
2023-05-12T17:23:22.224Z,9.72
2023-05-12T17:26:27.981Z,9.71
2023-05-12T17:29:31.130Z,9.71
2023-05-12T17:32:55.942Z,9.70
2023-05-12T17:36:21.314Z,9.65
2023-05-12T17:39:24.588Z,9.69
2023-05-12T17:42:31.204Z,9.66
2023-05-12T17:45:34.296Z,9.65
2023-05-12T17:48:38.582Z,9.58
2023-05-12T17:51:42.078Z,9.55
2023-05-12T17:54:44.874Z,9.53
2023-05-12T17:57:49.375Z,9.53
2023-05-12T18:00:52.384Z,9.46
2023-05-12T18:03:55.417Z,9.56
2023-05-12T18:06:59.373Z,9.60
2023-05-12T18:10:09.838Z,9.63
2023-05-12T18:13:14.765Z,9.65
2023-05-12T18:16:28.683Z,9.61
2023-05-12T18:19:32.189Z,9.64
2023-05-12T18:22:35.173Z,9.74
2023-05-12T18:26:12.037Z,9.83
2023-05-12T18:29:53.682Z,9.79
2023-05-12T18:33:40.898Z,9.83
2023-05-12T18:37:25.777Z,9.93
2023-05-12T18:40:52.622Z,9.89
2023-05-12T18:44:15.753Z,9.89
2023-05-12T18:47:38.964Z,9.93
2023-05-12T18:50:52.172Z,9.90
2023-05-12T18:54:04.644Z,9.91
2023-05-12T18:57:07.841Z,9.86
2023-05-12T19:00:11.277Z,9.79
2023-05-12T19:03:14.756Z,9.83
2023-05-12T19:06:17.762Z,9.81
2023-05-12T19:09:21.169Z,9.77
2023-05-12T19:12:23.859Z,9.74
2023-05-12T19:15:27.054Z,9.76
2023-05-12T19:18:50.860Z,9.74
2023-05-12T19:21:58.877Z,9.76
2023-05-12T19:25:03.242Z,9.71
2023-05-12T19:28:27.477Z,9.62
2023-05-12T19:31:31.360Z,9.64
2023-05-12T19:34:55.898Z,9.62
2023-05-12T19:38:18.761Z,9.58
2023-05-12T19:41:24.566Z,9.58
2023-05-12T19:44:30.117Z,9.58
2023-05-12T19:47:33.563Z,9.55
2023-05-12T19:50:57.043Z,9.56
2023-05-12T19:54:06.460Z,9.60
2023-05-12T19:57:09.188Z,9.58
2023-05-12T20:00:44.314Z,9.57
2023-05-12T20:03:55.312Z,9.65
2023-05-12T20:06:58.086Z,9.62
2023-05-12T20:10:01.392Z,9.64
2023-05-12T20:13:04.603Z,9.66
2023-05-12T20:16:38.695Z,9.65
2023-05-12T20:20:14.420Z,9.64
2023-05-12T20:23:57.842Z,9.69
2023-05-12T20:27:40.498Z,9.72
2023-05-12T20:31:32.189Z,9.60
2023-05-12T20:34:54.764Z,9.69
2023-05-12T20:38:37.902Z,9.65
2023-05-12T20:41:42.397Z,9.53
2023-05-12T20:44:46.171Z,9.62
2023-05-12T20:48:29.030Z,9.60
2023-05-12T20:51:56.728Z,9.54
2023-05-12T20:55:02.748Z,9.45
2023-05-12T20:58:06.009Z,9.48
2023-05-12T21:01:10.517Z,9.58
2023-05-12T21:04:33.559Z,9.47
2023-05-12T21:07:36.701Z,9.50
2023-05-12T21:10:40.151Z,9.45
2023-05-12T21:13:44.528Z,9.48
2023-05-12T21:16:47.686Z,9.47
2023-05-12T21:19:50.347Z,9.47
2023-05-12T21:22:53.300Z,9.45
2023-05-12T21:25:56.008Z,9.40
2023-05-12T21:29:02.843Z,9.39
2023-05-12T21:32:06.045Z,9.41
2023-05-12T21:35:09.614Z,9.49
2023-05-12T21:38:12.356Z,9.52
2023-05-12T21:41:15.363Z,9.51
2023-05-12T21:44:18.060Z,9.49
2023-05-12T21:47:23.712Z,9.44
2023-05-12T21:50:26.477Z,9.48
2023-05-12T21:53:29.957Z,9.55
2023-05-12T21:56:32.724Z,9.58
2023-05-12T21:59:35.672Z,9.55
2023-05-12T22:02:38.599Z,9.62
2023-05-12T22:05:41.829Z,9.65
2023-05-12T22:08:44.852Z,9.71
2023-05-12T22:11:48.230Z,9.71
2023-05-12T22:14:55.055Z,9.71
2023-05-12T22:17:58.020Z,9.78
2023-05-12T22:21:01.042Z,9.68
2023-05-12T22:24:04.507Z,9.80
2023-05-12T22:27:07.211Z,9.79
2023-05-12T22:30:11.415Z,9.67
2023-05-12T22:33:14.014Z,9.76
2023-05-12T22:36:17.403Z,9.81
2023-05-12T22:39:20.050Z,9.71
2023-05-12T22:42:23.602Z,9.76
2023-05-12T22:45:26.350Z,9.75
2023-05-12T22:48:30.608Z,9.78
2023-05-12T22:51:36.426Z,9.76
2023-05-12T22:54:39.425Z,9.72
2023-05-12T22:57:43.774Z,9.74
2023-05-12T23:00:46.939Z,9.77
2023-05-12T23:03:52.193Z,9.72
2023-05-12T23:06:55.711Z,9.71
2023-05-12T23:09:58.376Z,9.72
2023-05-12T23:13:01.304Z,9.64
2023-05-12T23:16:04.330Z,9.71
2023-05-12T23:19:07.389Z,9.75
2023-05-12T23:22:10.096Z,9.73
2023-05-12T23:25:15.029Z,9.65
2023-05-12T23:28:17.743Z,9.74
2023-05-12T23:31:20.723Z,9.69
2023-05-12T23:34:23.563Z,9.72
2023-05-12T23:37:27.127Z,9.71
2023-05-12T23:40:29.797Z,9.77
2023-05-12T23:43:32.657Z,9.74
2023-05-12T23:46:35.442Z,9.72
2023-05-12T23:49:38.482Z,9.72
2023-05-12T23:52:41.296Z,9.76
2023-05-12T23:55:44.190Z,9.73
2023-05-12T23:58:47.541Z,9.73
